createdAt,value
2017-03-26T00:00:15.135Z,0
2017-03-26T00:00:55.583Z,0
2017-03-26T00:01:36.094Z,0
2017-03-26T00:02:16.521Z,0
2017-03-26T00:02:57.038Z,0
2017-03-26T00:03:37.521Z,0
2017-03-26T00:04:18.040Z,0
2017-03-26T00:04:58.573Z,0
2017-03-26T00:05:39.015Z,0
2017-03-26T00:06:19.516Z,0
2017-03-26T00:06:59.993Z,0
2017-03-26T00:07:40.482Z,0
2017-03-26T00:08:20.931Z,0
2017-03-26T00:09:01.416Z,0
2017-03-26T00:09:41.911Z,0
2017-03-26T00:10:22.404Z,0
2017-03-26T00:11:02.907Z,0
2017-03-26T00:11:43.346Z,0
2017-03-26T00:12:24.025Z,0
2017-03-26T00:13:04.530Z,0
2017-03-26T00:13:45.021Z,0
2017-03-26T00:14:25.538Z,0
2017-03-26T00:15:05.939Z,0
2017-03-26T00:15:46.483Z,0
2017-03-26T00:16:26.968Z,0
2017-03-26T00:17:07.525Z,0
2017-03-26T00:17:48.017Z,0
2017-03-26T00:18:28.468Z,0
2017-03-26T00:19:08.982Z,0
2017-03-26T00:19:49.535Z,0
2017-03-26T00:20:30.124Z,0
2017-03-26T00:21:10.612Z,0
2017-03-26T00:21:51.113Z,0
2017-03-26T00:22:31.650Z,0
2017-03-26T00:23:12.235Z,0
2017-03-26T00:23:53.055Z,0
2017-03-26T00:24:33.523Z,0
2017-03-26T00:25:13.988Z,0
2017-03-26T00:25:54.505Z,0
2017-03-26T00:26:34.970Z,0
2017-03-26T00:27:15.503Z,0
2017-03-26T00:27:55.950Z,0
2017-03-26T00:28:36.449Z,0
2017-03-26T00:29:16.947Z,0
2017-03-26T00:29:57.476Z,0
2017-03-26T00:30:37.940Z,0
2017-03-26T00:31:18.451Z,0
2017-03-26T00:31:58.928Z,0
2017-03-26T00:32:39.504Z,0
2017-03-26T00:33:20.055Z,0
2017-03-26T00:34:00.540Z,0
2017-03-26T00:34:40.999Z,0
2017-03-26T00:35:21.653Z,0
2017-03-26T00:36:02.160Z,0
2017-03-26T00:36:42.685Z,0
2017-03-26T00:37:23.192Z,0
2017-03-26T00:38:03.667Z,0
2017-03-26T00:38:44.209Z,0
2017-03-26T00:39:24.731Z,0
2017-03-26T00:40:05.208Z,0
2017-03-26T00:40:45.693Z,0
2017-03-26T00:41:26.157Z,0
2017-03-26T00:42:06.678Z,0
2017-03-26T00:42:47.142Z,0
2017-03-26T00:43:27.616Z,0
2017-03-26T00:44:08.143Z,0
2017-03-26T00:44:48.633Z,0
2017-03-26T00:45:29.116Z,0
2017-03-26T00:46:09.575Z,0
2017-03-26T00:46:50.108Z,0
2017-03-26T00:47:30.504Z,0
2017-03-26T00:48:11.025Z,0
2017-03-26T00:48:51.534Z,0
2017-03-26T00:49:32.038Z,0
2017-03-26T00:50:12.477Z,0
2017-03-26T00:50:52.991Z,0
2017-03-26T00:51:33.460Z,0
2017-03-26T00:52:14.006Z,0
2017-03-26T00:52:54.489Z,0
2017-03-26T00:53:34.954Z,0
2017-03-26T00:54:15.462Z,0
2017-03-26T00:54:55.930Z,0
2017-03-26T00:55:36.428Z,0
2017-03-26T00:56:16.892Z,0
2017-03-26T00:56:57.392Z,0
2017-03-26T00:57:37.838Z,0
2017-03-26T00:58:18.364Z,0
2017-03-26T00:58:58.899Z,0
2017-03-26T00:59:39.344Z,0
2017-03-26T01:00:19.826Z,0
2017-03-26T01:01:00.302Z,0
2017-03-26T01:01:40.822Z,0
2017-03-26T01:02:21.286Z,0
2017-03-26T01:03:01.751Z,0
2017-03-26T01:03:42.320Z,0
2017-03-26T01:04:22.819Z,0
2017-03-26T01:05:03.342Z,0
2017-03-26T01:05:43.832Z,0
2017-03-26T01:06:24.350Z,0
2017-03-26T01:07:04.830Z,0
2017-03-26T01:07:45.332Z,0
2017-03-26T01:08:25.781Z,0
2017-03-26T01:09:06.293Z,0
2017-03-26T01:09:46.758Z,0
2017-03-26T01:10:27.424Z,0
2017-03-26T01:11:07.832Z,0
2017-03-26T01:11:48.353Z,0
2017-03-26T01:12:28.812Z,0
2017-03-26T01:13:09.306Z,0
2017-03-26T01:13:49.761Z,0
2017-03-26T01:14:30.267Z,0
2017-03-26T01:15:10.744Z,0
2017-03-26T01:15:51.237Z,0
2017-03-26T01:16:31.715Z,0
2017-03-26T01:17:12.242Z,0
2017-03-26T01:17:52.691Z,0
2017-03-26T01:18:33.232Z,0
2017-03-26T01:19:13.685Z,0
2017-03-26T01:19:54.195Z,0
2017-03-26T01:20:34.638Z,0
2017-03-26T01:21:15.187Z,0
2017-03-26T01:21:55.673Z,0
2017-03-26T01:22:36.136Z,0
2017-03-26T01:23:16.629Z,0
2017-03-26T01:23:57.115Z,0
2017-03-26T01:24:37.625Z,0
2017-03-26T01:25:18.150Z,0
2017-03-26T01:25:58.651Z,0
2017-03-26T01:26:39.136Z,0
2017-03-26T01:27:19.586Z,0
2017-03-26T01:28:00.073Z,0
2017-03-26T01:28:40.598Z,0
2017-03-26T01:29:21.070Z,0
2017-03-26T01:30:01.592Z,0
2017-03-26T01:30:42.021Z,0
2017-03-26T01:31:22.499Z,0
2017-03-26T01:32:03.040Z,0
2017-03-26T01:32:43.525Z,0
2017-03-26T01:33:23.972Z,0
2017-03-26T01:34:04.488Z,0
2017-03-26T01:34:44.991Z,0
2017-03-26T01:35:25.467Z,0
2017-03-26T01:36:06.066Z,0
2017-03-26T01:36:46.526Z,0
2017-03-26T01:37:27.069Z,0
2017-03-26T01:38:07.589Z,0
2017-03-26T01:38:48.025Z,0
2017-03-26T01:39:28.505Z,0
2017-03-26T01:40:08.945Z,0
2017-03-26T01:40:49.429Z,0
2017-03-26T01:41:29.899Z,0
2017-03-26T01:42:10.451Z,0
2017-03-26T01:42:50.950Z,0
2017-03-26T01:43:31.434Z,0
2017-03-26T01:44:11.921Z,0
2017-03-26T01:44:52.411Z,0
2017-03-26T01:45:32.970Z,0
2017-03-26T01:46:13.400Z,0
2017-03-26T01:46:53.881Z,0
2017-03-26T01:47:34.346Z,0
2017-03-26T01:48:14.816Z,0
2017-03-26T01:48:55.336Z,0
2017-03-26T01:49:35.823Z,0
2017-03-26T01:50:16.297Z,0
2017-03-26T01:50:56.777Z,0
2017-03-26T01:51:37.266Z,0
2017-03-26T01:52:17.805Z,0
2017-03-26T01:52:58.266Z,0
2017-03-26T01:53:38.820Z,0
2017-03-26T01:54:19.336Z,0
2017-03-26T01:54:59.810Z,0
2017-03-26T01:55:40.282Z,0
2017-03-26T01:56:20.780Z,0
2017-03-26T01:57:01.300Z,0
2017-03-26T01:57:41.781Z,0
2017-03-26T01:58:22.302Z,0
2017-03-26T01:59:02.736Z,0
2017-03-26T01:59:43.184Z,0
2017-03-26T02:00:23.692Z,0
2017-03-26T02:01:04.237Z,0
2017-03-26T02:01:47.442Z,0
2017-03-26T02:02:28.085Z,0
2017-03-26T02:03:08.531Z,0
2017-03-26T02:03:48.990Z,0
2017-03-26T02:04:29.473Z,0
2017-03-26T02:05:09.997Z,0
2017-03-26T02:05:50.538Z,0
2017-03-26T02:06:31.028Z,0
2017-03-26T02:07:11.588Z,0
2017-03-26T02:07:52.107Z,0
2017-03-26T02:08:32.600Z,0
2017-03-26T02:09:13.088Z,0
2017-03-26T02:09:53.577Z,0
2017-03-26T02:10:34.107Z,0
2017-03-26T02:11:14.584Z,0
2017-03-26T02:11:55.093Z,0
2017-03-26T02:12:35.539Z,0
2017-03-26T02:13:16.018Z,0
2017-03-26T02:13:56.488Z,0
2017-03-26T02:14:36.951Z,0
2017-03-26T02:15:17.469Z,0
2017-03-26T02:15:57.941Z,0
2017-03-26T02:16:38.438Z,0
2017-03-26T02:17:18.877Z,0
2017-03-26T02:17:59.360Z,0
2017-03-26T02:18:39.851Z,0
2017-03-26T02:19:20.355Z,0
2017-03-26T02:20:00.893Z,0
2017-03-26T02:20:41.313Z,0
2017-03-26T02:21:21.844Z,0
2017-03-26T02:22:02.317Z,0
2017-03-26T02:22:42.883Z,0
2017-03-26T02:23:23.288Z,0
2017-03-26T02:24:03.803Z,0
2017-03-26T02:24:44.277Z,0
2017-03-26T02:25:24.778Z,0
2017-03-26T02:26:05.255Z,0
2017-03-26T02:26:45.804Z,0
2017-03-26T02:27:26.280Z,0
2017-03-26T02:28:06.786Z,0
2017-03-26T02:28:47.258Z,0
2017-03-26T02:29:27.743Z,0
2017-03-26T02:30:08.256Z,0
2017-03-26T02:30:48.727Z,0
2017-03-26T02:31:29.226Z,0
2017-03-26T02:32:09.726Z,0
2017-03-26T02:32:50.240Z,0
2017-03-26T02:33:30.736Z,0
2017-03-26T02:34:11.231Z,0
2017-03-26T02:34:51.690Z,0
2017-03-26T02:35:32.158Z,0
2017-03-26T02:36:12.646Z,0
2017-03-26T02:36:53.128Z,0
2017-03-26T02:37:33.632Z,0
2017-03-26T02:38:14.112Z,0
2017-03-26T02:38:54.616Z,0
2017-03-26T02:39:35.108Z,0
2017-03-26T02:40:15.639Z,0
2017-03-26T02:40:56.112Z,0
2017-03-26T02:41:36.606Z,0
2017-03-26T02:42:17.072Z,0
2017-03-26T02:42:57.576Z,0
2017-03-26T02:43:38.063Z,0
2017-03-26T02:44:18.570Z,0
2017-03-26T02:44:59.024Z,0
2017-03-26T02:45:39.540Z,0
2017-03-26T02:46:20.043Z,0
2017-03-26T02:47:00.507Z,0
2017-03-26T02:47:40.975Z,0
2017-03-26T02:48:21.445Z,0
2017-03-26T02:49:01.934Z,0
2017-03-26T02:49:42.635Z,0
2017-03-26T02:50:23.168Z,0
2017-03-26T02:51:03.623Z,0
2017-03-26T02:51:44.145Z,0
2017-03-26T02:52:24.634Z,0
2017-03-26T02:53:05.103Z,0
2017-03-26T02:53:45.621Z,0
2017-03-26T02:54:26.068Z,0
2017-03-26T02:55:06.600Z,0
2017-03-26T02:55:47.056Z,0
2017-03-26T02:56:27.552Z,0
2017-03-26T02:57:08.020Z,0
2017-03-26T02:57:48.538Z,0
2017-03-26T02:58:29.050Z,0
2017-03-26T02:59:09.563Z,0
2017-03-26T02:59:50.018Z,0
2017-03-26T03:00:30.522Z,0
2017-03-26T03:01:11.051Z,0
2017-03-26T03:01:51.523Z,0
2017-03-26T03:02:32.073Z,0
2017-03-26T03:03:12.468Z,0
2017-03-26T03:03:52.998Z,0
2017-03-26T03:04:33.456Z,0
2017-03-26T03:05:13.906Z,0
2017-03-26T03:05:54.519Z,0
2017-03-26T03:06:35.036Z,0
2017-03-26T03:07:15.458Z,0
2017-03-26T03:07:55.947Z,0
2017-03-26T03:08:36.415Z,0
2017-03-26T03:09:16.941Z,0
2017-03-26T03:09:57.456Z,0
2017-03-26T03:10:37.880Z,0
2017-03-26T03:11:18.335Z,0
2017-03-26T03:11:58.818Z,0
2017-03-26T03:12:39.467Z,0
2017-03-26T03:13:19.983Z,0
2017-03-26T03:14:00.492Z,0
2017-03-26T03:14:40.942Z,0
2017-03-26T03:15:21.484Z,0
2017-03-26T03:16:01.930Z,0
2017-03-26T03:16:42.458Z,0
2017-03-26T03:17:22.931Z,0
2017-03-26T03:18:03.425Z,0
2017-03-26T03:18:43.882Z,0
2017-03-26T03:19:24.373Z,0
2017-03-26T03:20:04.888Z,0
2017-03-26T03:20:45.350Z,0
2017-03-26T03:21:25.839Z,0
2017-03-26T03:22:06.320Z,0
2017-03-26T03:22:46.810Z,0
2017-03-26T03:23:27.268Z,0
2017-03-26T03:24:08.666Z,0
2017-03-26T03:24:49.133Z,0
2017-03-26T03:25:29.655Z,0
2017-03-26T03:26:10.207Z,0
2017-03-26T03:26:50.634Z,0
2017-03-26T03:27:31.161Z,0
2017-03-26T03:28:11.664Z,0
2017-03-26T03:28:52.105Z,0
2017-03-26T03:29:32.588Z,0
2017-03-26T03:30:13.104Z,0
2017-03-26T03:30:53.620Z,0
2017-03-26T03:31:34.069Z,0
2017-03-26T03:32:14.535Z,0
2017-03-26T03:32:55.001Z,0
2017-03-26T03:33:35.507Z,0
2017-03-26T03:34:15.960Z,0
2017-03-26T03:34:56.457Z,0
2017-03-26T03:35:36.936Z,0
2017-03-26T03:36:17.405Z,0
2017-03-26T03:36:57.888Z,0
2017-03-26T03:37:38.450Z,0
2017-03-26T03:38:18.930Z,0
2017-03-26T03:38:59.415Z,0
2017-03-26T03:39:39.937Z,0
2017-03-26T03:40:20.397Z,0
2017-03-26T03:41:00.937Z,0
2017-03-26T03:41:41.396Z,0
2017-03-26T03:42:21.888Z,0
2017-03-26T03:43:02.333Z,0
2017-03-26T03:43:42.879Z,0
2017-03-26T03:44:23.386Z,0
2017-03-26T03:45:03.870Z,0
2017-03-26T03:45:44.338Z,0
2017-03-26T03:46:24.823Z,0
2017-03-26T03:47:05.268Z,0
2017-03-26T03:47:45.794Z,0
2017-03-26T03:48:26.316Z,0
2017-03-26T03:49:06.817Z,0
2017-03-26T03:49:47.287Z,0
2017-03-26T03:50:27.765Z,0
2017-03-26T03:51:08.216Z,0
2017-03-26T03:51:48.714Z,0
2017-03-26T03:52:29.180Z,0
2017-03-26T03:53:09.649Z,0
2017-03-26T03:53:50.141Z,0
2017-03-26T03:54:30.635Z,0
2017-03-26T03:55:11.097Z,0
2017-03-26T03:55:51.620Z,0
2017-03-26T03:56:32.133Z,0
2017-03-26T03:57:12.571Z,0
2017-03-26T03:57:53.030Z,0
2017-03-26T03:58:33.519Z,0
2017-03-26T03:59:14.079Z,0
2017-03-26T03:59:54.484Z,0
2017-03-26T04:00:34.976Z,0
2017-03-26T04:01:15.496Z,0
2017-03-26T04:01:55.966Z,0
2017-03-26T04:02:36.452Z,0
2017-03-26T04:03:16.940Z,0
2017-03-26T04:03:57.431Z,0
2017-03-26T04:04:37.915Z,0
2017-03-26T04:05:18.401Z,0
2017-03-26T04:05:58.887Z,0
2017-03-26T04:06:39.401Z,0
2017-03-26T04:07:19.860Z,0
2017-03-26T04:08:00.330Z,0
2017-03-26T04:08:40.836Z,0
2017-03-26T04:09:21.322Z,0
2017-03-26T04:10:01.793Z,0
2017-03-26T04:10:42.285Z,0
2017-03-26T04:11:22.793Z,0
2017-03-26T04:12:03.245Z,0
2017-03-26T04:12:43.735Z,0
2017-03-26T04:13:24.311Z,0
2017-03-26T04:14:04.684Z,0
2017-03-26T04:14:45.158Z,0
2017-03-26T04:15:25.632Z,0
2017-03-26T04:16:06.136Z,0
2017-03-26T04:16:46.656Z,0
2017-03-26T04:17:27.108Z,0
2017-03-26T04:18:07.621Z,0
2017-03-26T04:18:48.072Z,0
2017-03-26T04:19:28.549Z,0
2017-03-26T04:20:09.086Z,0
2017-03-26T04:20:49.533Z,0
2017-03-26T04:21:30.077Z,0
2017-03-26T04:22:10.561Z,0
2017-03-26T04:22:51.103Z,0
2017-03-26T04:23:31.531Z,0
2017-03-26T04:24:12.038Z,0
2017-03-26T04:24:52.507Z,0
2017-03-26T04:25:33.017Z,0
2017-03-26T04:26:13.480Z,0
2017-03-26T04:26:53.977Z,0
2017-03-26T04:27:34.492Z,0
2017-03-26T04:28:14.982Z,0
2017-03-26T04:28:55.455Z,0
2017-03-26T04:29:35.939Z,0
2017-03-26T04:30:16.450Z,0
2017-03-26T04:30:56.962Z,0
2017-03-26T04:31:37.383Z,0
2017-03-26T04:32:17.895Z,0
2017-03-26T04:32:58.369Z,0
2017-03-26T04:33:38.867Z,0
2017-03-26T04:34:19.363Z,0
2017-03-26T04:34:59.832Z,0
2017-03-26T04:35:40.318Z,0
2017-03-26T04:36:20.839Z,0
2017-03-26T04:37:01.292Z,0
2017-03-26T04:37:41.747Z,0
2017-03-26T04:38:22.205Z,0
2017-03-26T04:39:02.748Z,0
2017-03-26T04:39:43.220Z,0
2017-03-26T04:40:23.701Z,0
2017-03-26T04:41:04.231Z,0
2017-03-26T04:41:44.711Z,0
2017-03-26T04:42:25.143Z,0
2017-03-26T04:43:05.845Z,0
2017-03-26T04:43:46.315Z,0
2017-03-26T04:44:26.860Z,0
2017-03-26T04:45:07.299Z,0
2017-03-26T04:45:47.786Z,4
2017-03-26T04:46:28.263Z,4
2017-03-26T04:47:08.769Z,0
2017-03-26T04:47:49.198Z,0
2017-03-26T04:48:29.700Z,0
2017-03-26T04:49:10.157Z,4
2017-03-26T04:49:50.633Z,4
2017-03-26T04:50:31.119Z,4
2017-03-26T04:51:11.607Z,0
2017-03-26T04:51:52.095Z,4
2017-03-26T04:52:32.583Z,4
2017-03-26T04:53:13.070Z,4
2017-03-26T04:53:53.542Z,4
2017-03-26T04:54:34.045Z,4
2017-03-26T04:55:14.462Z,8
2017-03-26T04:55:54.964Z,8
2017-03-26T04:56:35.458Z,8
2017-03-26T04:57:15.948Z,8
2017-03-26T04:57:56.452Z,12
2017-03-26T04:58:36.916Z,12
2017-03-26T04:59:17.408Z,16
2017-03-26T04:59:57.920Z,16
2017-03-26T05:00:38.393Z,20
2017-03-26T05:01:18.889Z,20
2017-03-26T05:01:59.369Z,28
2017-03-26T05:02:39.862Z,28
2017-03-26T05:03:20.305Z,36
2017-03-26T05:04:00.778Z,40
2017-03-26T05:04:41.253Z,44
2017-03-26T05:05:21.753Z,52
2017-03-26T05:06:02.263Z,52
2017-03-26T05:06:42.705Z,52
2017-03-26T05:07:23.159Z,56
2017-03-26T05:08:03.718Z,56
2017-03-26T05:08:44.209Z,60
2017-03-26T05:09:24.668Z,60
2017-03-26T05:10:05.166Z,64
2017-03-26T05:10:45.704Z,72
2017-03-26T05:11:26.204Z,76
2017-03-26T05:12:06.677Z,80
2017-03-26T05:12:47.184Z,84
2017-03-26T05:13:27.774Z,92
2017-03-26T05:14:08.179Z,100
2017-03-26T05:14:48.670Z,104
2017-03-26T05:15:29.107Z,112
2017-03-26T05:16:09.627Z,120
2017-03-26T05:16:50.185Z,128
2017-03-26T05:17:30.676Z,136
2017-03-26T05:18:11.055Z,144
2017-03-26T05:18:51.595Z,152
2017-03-26T05:19:32.048Z,164
2017-03-26T05:20:12.564Z,176
2017-03-26T05:20:53.022Z,188
2017-03-26T05:21:33.518Z,200
2017-03-26T05:22:14.036Z,216
2017-03-26T05:22:54.554Z,232
2017-03-26T05:23:34.950Z,248
2017-03-26T05:24:15.427Z,264
2017-03-26T05:24:55.938Z,284
2017-03-26T05:25:36.483Z,304
2017-03-26T05:26:16.964Z,320
2017-03-26T05:26:57.499Z,340
2017-03-26T05:27:37.985Z,360
2017-03-26T05:28:18.481Z,380
2017-03-26T05:28:58.935Z,400
2017-03-26T05:29:39.400Z,424
2017-03-26T05:30:19.948Z,444
2017-03-26T05:31:00.416Z,468
2017-03-26T05:31:40.942Z,488
2017-03-26T05:32:21.449Z,508
2017-03-26T05:33:01.879Z,536
2017-03-26T05:33:42.377Z,560
2017-03-26T05:34:22.829Z,580
2017-03-26T05:35:03.348Z,604
2017-03-26T05:35:43.835Z,632
2017-03-26T05:36:24.379Z,660
2017-03-26T05:37:04.902Z,688
2017-03-26T05:37:45.325Z,712
2017-03-26T05:38:25.811Z,740
2017-03-26T05:39:06.289Z,764
2017-03-26T05:39:46.778Z,796
2017-03-26T05:40:27.264Z,820
2017-03-26T05:41:07.802Z,844
2017-03-26T05:41:48.272Z,872
2017-03-26T05:42:28.741Z,892
2017-03-26T05:43:09.277Z,916
2017-03-26T05:43:49.755Z,940
2017-03-26T05:44:30.223Z,960
2017-03-26T05:45:10.720Z,980
2017-03-26T05:45:51.193Z,1000
2017-03-26T05:46:31.680Z,1020
2017-03-26T05:47:12.161Z,1044
2017-03-26T05:47:52.642Z,1068
2017-03-26T05:48:33.145Z,1088
2017-03-26T05:49:13.623Z,1108
2017-03-26T05:49:54.087Z,1124
2017-03-26T05:50:34.549Z,1140
2017-03-26T05:51:15.021Z,1156
2017-03-26T05:51:55.498Z,1172
2017-03-26T05:52:36.012Z,1188
2017-03-26T05:53:16.501Z,1208
2017-03-26T05:53:57.000Z,1232
2017-03-26T05:54:37.453Z,1256
2017-03-26T05:55:17.982Z,1280
2017-03-26T05:55:58.485Z,1312
2017-03-26T05:56:38.978Z,1344
2017-03-26T05:57:19.420Z,1376
2017-03-26T05:57:59.873Z,1404
2017-03-26T05:58:40.373Z,1432
2017-03-26T05:59:20.813Z,1452
2017-03-26T06:00:01.357Z,1472
2017-03-26T06:00:41.810Z,1500
2017-03-26T06:01:22.275Z,1520
2017-03-26T06:02:02.749Z,1544
2017-03-26T06:02:43.281Z,1572
2017-03-26T06:03:23.701Z,1596
2017-03-26T06:04:04.191Z,1636
2017-03-26T06:04:44.709Z,1672
2017-03-26T06:05:25.236Z,1708
2017-03-26T06:06:05.733Z,1752
2017-03-26T06:06:46.223Z,1800
2017-03-26T06:07:26.716Z,1852
2017-03-26T06:08:07.249Z,1904
2017-03-26T06:08:47.653Z,1960
2017-03-26T06:09:28.135Z,2008
2017-03-26T06:10:08.615Z,2056
2017-03-26T06:10:49.189Z,2096
2017-03-26T06:11:29.697Z,2128
2017-03-26T06:12:10.276Z,2152
2017-03-26T06:12:50.810Z,2172
2017-03-26T06:13:31.303Z,2200
2017-03-26T06:14:11.802Z,2216
2017-03-26T06:14:52.315Z,2236
2017-03-26T06:15:32.800Z,2260
2017-03-26T06:16:13.274Z,2284
2017-03-26T06:16:53.765Z,2304
2017-03-26T06:17:34.274Z,2320
2017-03-26T06:18:14.730Z,2340
2017-03-26T06:18:55.261Z,2348
2017-03-26T06:19:35.776Z,2352
2017-03-26T06:20:16.208Z,2356
2017-03-26T06:20:56.668Z,2356
2017-03-26T06:21:37.178Z,2364
2017-03-26T06:22:17.639Z,2372
2017-03-26T06:22:58.166Z,2372
2017-03-26T06:23:38.647Z,2376
2017-03-26T06:24:19.105Z,2376
2017-03-26T06:24:59.607Z,2384
2017-03-26T06:25:40.111Z,2392
2017-03-26T06:26:20.621Z,2396
2017-03-26T06:27:01.174Z,2404
2017-03-26T06:27:41.593Z,2408
2017-03-26T06:28:22.096Z,2432
2017-03-26T06:29:02.581Z,2452
2017-03-26T06:29:43.122Z,2464
2017-03-26T06:30:23.547Z,2476
2017-03-26T06:31:04.026Z,2484
2017-03-26T06:31:44.596Z,2504
2017-03-26T06:32:25.058Z,2520
2017-03-26T06:33:05.612Z,2528
2017-03-26T06:33:46.028Z,2540
2017-03-26T06:34:26.582Z,2560
2017-03-26T06:35:07.113Z,2572
2017-03-26T06:35:47.722Z,2592
2017-03-26T06:36:28.191Z,2608
2017-03-26T06:37:08.674Z,2632
2017-03-26T06:37:49.255Z,2648
2017-03-26T06:38:29.857Z,2664
2017-03-26T06:39:10.332Z,2680
2017-03-26T06:39:50.794Z,2692
2017-03-26T06:40:31.273Z,2708
2017-03-26T06:41:11.762Z,2728
2017-03-26T06:41:52.247Z,2744
2017-03-26T06:42:32.703Z,2772
2017-03-26T06:43:13.241Z,2796
2017-03-26T06:43:53.668Z,2820
2017-03-26T06:44:34.174Z,2852
2017-03-26T06:45:14.714Z,2880
2017-03-26T06:45:55.168Z,2896
2017-03-26T06:46:35.628Z,2892
2017-03-26T06:47:16.165Z,2940
2017-03-26T06:47:56.665Z,2952
2017-03-26T06:48:37.119Z,2956
2017-03-26T06:49:17.610Z,2960
2017-03-26T06:49:58.108Z,2924
2017-03-26T06:50:38.618Z,2932
2017-03-26T06:51:19.044Z,2908
2017-03-26T06:51:59.515Z,2852
2017-03-26T06:52:40.039Z,2956
2017-03-26T06:53:20.496Z,2992
2017-03-26T06:54:00.988Z,2992
2017-03-26T06:54:41.516Z,2988
2017-03-26T06:55:21.906Z,2996
2017-03-26T06:56:02.451Z,3028
2017-03-26T06:56:42.952Z,3040
2017-03-26T06:57:23.390Z,3048
2017-03-26T06:58:03.860Z,3076
2017-03-26T06:58:44.374Z,3096
2017-03-26T06:59:24.891Z,3072
2017-03-26T07:00:05.444Z,3028
2017-03-26T07:00:45.858Z,2996
2017-03-26T07:01:26.372Z,2916
2017-03-26T07:02:06.868Z,2948
2017-03-26T07:02:47.418Z,3004
2017-03-26T07:03:27.882Z,3084
2017-03-26T07:04:08.586Z,3248
2017-03-26T07:04:48.989Z,3504
2017-03-26T07:05:29.522Z,3824
2017-03-26T07:06:10.012Z,4116
2017-03-26T07:06:50.524Z,4316
2017-03-26T07:07:30.988Z,4452
2017-03-26T07:08:12.042Z,4528
2017-03-26T07:08:52.585Z,4580
2017-03-26T07:09:33.169Z,4488
2017-03-26T07:10:13.619Z,4612
2017-03-26T07:10:54.082Z,4640
2017-03-26T07:11:34.568Z,4664
2017-03-26T07:12:15.799Z,4568
2017-03-26T07:12:56.315Z,4524
2017-03-26T07:13:36.829Z,4560
2017-03-26T07:14:17.302Z,4412
2017-03-26T07:14:57.705Z,4628
2017-03-26T07:15:38.269Z,4656
2017-03-26T07:16:18.732Z,4648
2017-03-26T07:16:59.272Z,4612
2017-03-26T07:17:39.736Z,4520
2017-03-26T07:18:20.236Z,4444
2017-03-26T07:19:00.746Z,4328
2017-03-26T07:19:41.194Z,4264
2017-03-26T07:20:21.698Z,4444
2017-03-26T07:21:02.178Z,4468
2017-03-26T07:21:42.698Z,4512
2017-03-26T07:22:23.415Z,4532
2017-03-26T07:23:03.876Z,4372
2017-03-26T07:23:44.374Z,4376
2017-03-26T07:24:24.868Z,4496
2017-03-26T07:25:05.323Z,4468
2017-03-26T07:25:45.869Z,4424
2017-03-26T07:26:26.314Z,4464
2017-03-26T07:27:06.790Z,4516
2017-03-26T07:27:47.260Z,4500
2017-03-26T07:28:27.795Z,4480
2017-03-26T07:29:08.594Z,4468
2017-03-26T07:29:49.085Z,4440
2017-03-26T07:30:29.608Z,4460
2017-03-26T07:31:10.148Z,4452
2017-03-26T07:31:50.613Z,4396
2017-03-26T07:32:31.073Z,4332
2017-03-26T07:33:11.682Z,4392
2017-03-26T07:33:52.142Z,4416
2017-03-26T07:34:32.672Z,4408
2017-03-26T07:35:13.170Z,4476
2017-03-26T07:35:53.626Z,4492
2017-03-26T07:36:34.122Z,4504
2017-03-26T07:37:14.541Z,4504
2017-03-26T07:37:55.049Z,4496
2017-03-26T07:38:35.550Z,4500
2017-03-26T07:39:16.121Z,4500
2017-03-26T07:39:56.560Z,4488
2017-03-26T07:40:37.052Z,4476
2017-03-26T07:41:17.522Z,4472
2017-03-26T07:41:58.236Z,4432
2017-03-26T07:42:38.718Z,4344
2017-03-26T07:43:19.145Z,4180
2017-03-26T07:43:59.599Z,4116
2017-03-26T07:44:40.160Z,4024
2017-03-26T07:45:20.717Z,3984
2017-03-26T07:46:01.145Z,3948
2017-03-26T07:46:41.589Z,3988
2017-03-26T07:47:22.396Z,4016
2017-03-26T07:48:02.852Z,4028
2017-03-26T07:48:43.335Z,4036
2017-03-26T07:49:23.788Z,4032
2017-03-26T07:50:04.325Z,3980
2017-03-26T07:50:44.800Z,3964
2017-03-26T07:51:25.285Z,3984
2017-03-26T07:52:05.771Z,3976
2017-03-26T07:52:46.246Z,3996
2017-03-26T07:53:26.669Z,4016
2017-03-26T07:54:07.179Z,4024
2017-03-26T07:54:48.084Z,4016
2017-03-26T07:58:28.417Z,3888
2017-03-26T07:59:08.855Z,3828
2017-03-26T07:59:49.410Z,3804
2017-03-26T08:00:29.889Z,3816
2017-03-26T08:01:10.425Z,3836
2017-03-26T08:01:50.915Z,3860
2017-03-26T08:02:31.421Z,3892
2017-03-26T08:03:12.349Z,3912
2017-03-26T08:03:52.882Z,3928
2017-03-26T08:04:33.405Z,3964
2017-03-26T08:05:13.849Z,4004
2017-03-26T08:05:54.363Z,4008
2017-03-26T08:15:29.170Z,3812
2017-03-26T08:19:37.771Z,3828
2017-03-26T08:26:54.480Z,3568
2017-03-26T08:47:39.313Z,3692
2017-03-26T08:49:57.324Z,3656
2017-03-26T09:01:06.660Z,3276
2017-03-26T09:01:56.950Z,3284
2017-03-26T09:04:07.174Z,3248
2017-03-26T09:06:08.842Z,3196
2017-03-26T09:07:50.379Z,3176
2017-03-26T09:22:27.359Z,3168
2017-03-26T09:24:35.704Z,3180
2017-03-26T09:25:24.839Z,3176
2017-03-26T09:26:13.644Z,3176
2017-03-26T09:27:02.561Z,3184
2017-03-26T09:28:46.549Z,3168
2017-03-26T09:29:35.461Z,3140
2017-03-26T09:52:46.822Z,2952
2017-03-26T10:00:35.038Z,2868
2017-03-26T10:27:45.971Z,2812
2017-03-26T10:28:39.474Z,2816
2017-03-26T15:32:13.526Z,1856
2017-03-26T15:32:53.927Z,916
2017-03-26T15:33:34.608Z,1160
2017-03-26T15:34:15.531Z,1212
2017-03-26T15:34:56.164Z,1336
2017-03-26T15:35:36.541Z,1336
2017-03-26T15:36:17.081Z,1328
2017-03-26T15:37:07.322Z,1328
2017-03-26T15:37:47.779Z,1320
2017-03-26T15:38:28.386Z,1316
2017-03-26T15:39:09.841Z,1308
2017-03-26T15:39:52.014Z,1300
2017-03-26T15:40:32.799Z,1300
2017-03-26T15:41:13.242Z,1300
2017-03-26T15:41:59.677Z,1292
2017-03-26T15:42:41.561Z,1296
2017-03-26T15:43:22.523Z,1296
2017-03-26T15:44:04.789Z,1288
2017-03-26T15:44:45.572Z,1308
2017-03-26T15:45:26.055Z,1300
2017-03-26T15:46:06.841Z,1292
2017-03-26T15:46:48.755Z,1280
2017-03-26T15:47:29.317Z,1280
2017-03-26T15:48:10.342Z,1276
2017-03-26T15:48:51.531Z,1268
2017-03-26T15:49:31.946Z,1268
2017-03-26T15:50:12.735Z,1268
2017-03-26T15:50:55.111Z,1256
2017-03-26T15:51:34.430Z,1248
2017-03-26T15:52:15.022Z,1240
2017-03-26T15:52:55.534Z,1228
2017-03-26T15:53:36.443Z,1224
2017-03-26T15:54:17.025Z,1216
2017-03-26T15:54:57.497Z,1212
2017-03-26T15:59:29.657Z,1180
2017-03-26T16:02:46.055Z,1164
2017-03-26T16:05:24.480Z,1164
2017-03-26T16:12:21.248Z,1144
2017-03-26T16:14:24.245Z,1132
2017-03-26T16:17:14.979Z,1116
2017-03-26T16:18:08.753Z,1108
2017-03-26T16:21:52.343Z,1076
2017-03-26T16:30:23.507Z,996
2017-03-26T16:32:41.454Z,976
2017-03-26T16:33:26.960Z,972
2017-03-26T16:34:12.549Z,968
2017-03-26T16:34:53.035Z,960
2017-03-26T16:35:33.530Z,956
2017-03-26T16:36:14.112Z,948
2017-03-26T16:36:55.164Z,940
2017-03-26T16:37:35.695Z,932
2017-03-26T16:38:16.220Z,928
2017-03-26T16:38:56.693Z,920
2017-03-26T16:39:37.203Z,916
2017-03-26T16:40:17.675Z,908
2017-03-26T16:40:58.243Z,892
2017-03-26T16:41:38.721Z,896
2017-03-26T16:42:20.057Z,884
2017-03-26T16:43:00.883Z,872
2017-03-26T16:43:41.573Z,868
2017-03-26T16:44:21.803Z,864
2017-03-26T16:45:02.472Z,856
2017-03-26T16:45:43.184Z,856
2017-03-26T16:46:23.722Z,844
2017-03-26T16:47:04.209Z,840
2017-03-26T16:47:45.069Z,832
2017-03-26T16:48:25.648Z,828
2017-03-26T16:49:06.093Z,816
2017-03-26T16:49:46.673Z,808
2017-03-26T16:50:28.512Z,808
2017-03-26T16:51:09.430Z,796
2017-03-26T16:51:50.207Z,788
2017-03-26T16:52:31.597Z,780
2017-03-26T16:53:12.299Z,772
2017-03-26T16:53:53.534Z,764
2017-03-26T16:54:33.934Z,752
2017-03-26T16:55:14.810Z,744
2017-03-26T16:55:55.947Z,736
2017-03-26T16:56:36.325Z,728
2017-03-26T16:57:17.006Z,720
2017-03-26T16:57:57.792Z,712
2017-03-26T16:58:39.099Z,704
2017-03-26T16:59:19.998Z,696
2017-03-26T17:00:00.714Z,684
2017-03-26T17:00:41.574Z,680
2017-03-26T17:01:25.331Z,668
2017-03-26T17:02:06.083Z,660
2017-03-26T17:02:46.655Z,652
2017-03-26T17:03:27.915Z,644
2017-03-26T17:04:08.618Z,628
2017-03-26T17:04:49.223Z,624
2017-03-26T17:05:29.800Z,616
2017-03-26T17:06:10.617Z,608
2017-03-26T17:06:52.851Z,596
2017-03-26T17:07:33.554Z,588
2017-03-26T17:08:14.584Z,580
2017-03-26T17:08:54.421Z,568
2017-03-26T17:09:35.103Z,556
2017-03-26T17:10:15.972Z,548
2017-03-26T17:10:56.267Z,540
2017-03-26T17:11:37.564Z,528
2017-03-26T17:12:18.202Z,520
2017-03-26T17:12:58.979Z,508
2017-03-26T17:13:40.583Z,500
2017-03-26T17:14:20.450Z,488
2017-03-26T17:15:01.620Z,480
2017-03-26T17:15:42.573Z,468
2017-03-26T17:16:23.073Z,456
2017-03-26T17:17:04.558Z,448
2017-03-26T17:17:45.950Z,436
2017-03-26T17:18:29.157Z,428
2017-03-26T17:19:10.053Z,412